sensor_id;sensor_type;location;lat;lon;timestamp;P1;durP1;ratioP1;P2;durP2;ratioP2
56429;SDS011;42332;52.136;20.666;2024-02-26T00:02:04;28.05;;;11.35;;
56429;SDS011;42332;52.136;20.666;2024-02-26T00:04:30;31.23;;;11.80;;
56429;SDS011;42332;52.136;20.666;2024-02-26T00:06:55;35.40;;;11.93;;
56429;SDS011;42332;52.136;20.666;2024-02-26T00:09:21;28.95;;;11.38;;
56429;SDS011;42332;52.136;20.666;2024-02-26T00:11:46;31.90;;;11.82;;
56429;SDS011;42332;52.136;20.666;2024-02-26T00:14:11;31.90;;;11.75;;
56429;SDS011;42332;52.136;20.666;2024-02-26T00:16:39;28.08;;;11.20;;
56429;SDS011;42332;52.136;20.666;2024-02-26T00:19:05;26.05;;;10.52;;
56429;SDS011;42332;52.136;20.666;2024-02-26T00:21:30;30.45;;;11.00;;
56429;SDS011;42332;52.136;20.666;2024-02-26T00:23:56;26.10;;;9.65;;
56429;SDS011;42332;52.136;20.666;2024-02-26T00:26:21;26.38;;;10.00;;
56429;SDS011;42332;52.136;20.666;2024-02-26T00:28:46;32.35;;;11.40;;
56429;SDS011;42332;52.136;20.666;2024-02-26T00:31:12;29.05;;;10.85;;
56429;SDS011;42332;52.136;20.666;2024-02-26T00:33:37;26.98;;;11.32;;
56429;SDS011;42332;52.136;20.666;2024-02-26T00:36:03;28.52;;;11.00;;
56429;SDS011;42332;52.136;20.666;2024-02-26T00:38:29;29.27;;;10.60;;
56429;SDS011;42332;52.136;20.666;2024-02-26T00:40:54;24.95;;;10.00;;
56429;SDS011;42332;52.136;20.666;2024-02-26T00:43:20;30.38;;;9.48;;
56429;SDS011;42332;52.136;20.666;2024-02-26T00:45:45;26.52;;;11.20;;
56429;SDS011;42332;52.136;20.666;2024-02-26T00:48:12;27.60;;;10.35;;
56429;SDS011;42332;52.136;20.666;2024-02-26T00:50:38;24.35;;;9.38;;
56429;SDS011;42332;52.136;20.666;2024-02-26T00:53:05;27.73;;;11.50;;
56429;SDS011;42332;52.136;20.666;2024-02-26T00:55:30;24.88;;;9.43;;
56429;SDS011;42332;52.136;20.666;2024-02-26T00:57:55;28.83;;;10.30;;
56429;SDS011;42332;52.136;20.666;2024-02-26T01:00:21;24.42;;;9.68;;
56429;SDS011;42332;52.136;20.666;2024-02-26T01:02:46;21.95;;;9.15;;
56429;SDS011;42332;52.136;20.666;2024-02-26T01:05:12;28.05;;;9.63;;
56429;SDS011;42332;52.136;20.666;2024-02-26T01:07:38;21.83;;;10.32;;
56429;SDS011;42332;52.136;20.666;2024-02-26T01:10:05;26.33;;;9.95;;
56429;SDS011;42332;52.136;20.666;2024-02-26T01:12:31;27.67;;;10.77;;
56429;SDS011;42332;52.136;20.666;2024-02-26T01:15:00;27.35;;;11.13;;
56429;SDS011;42332;52.136;20.666;2024-02-26T01:17:26;32.58;;;10.80;;
56429;SDS011;42332;52.136;20.666;2024-02-26T01:19:51;32.15;;;11.20;;
56429;SDS011;42332;52.136;20.666;2024-02-26T01:22:18;23.33;;;9.65;;
56429;SDS011;42332;52.136;20.666;2024-02-26T01:24:44;27.65;;;10.55;;
56429;SDS011;42332;52.136;20.666;2024-02-26T01:27:09;27.67;;;10.00;;
56429;SDS011;42332;52.136;20.666;2024-02-26T01:29:35;24.98;;;10.65;;
56429;SDS011;42332;52.136;20.666;2024-02-26T01:32:00;26.05;;;9.27;;
56429;SDS011;42332;52.136;20.666;2024-02-26T01:34:25;27.17;;;10.63;;
56429;SDS011;42332;52.136;20.666;2024-02-26T01:36:51;33.78;;;10.38;;
56429;SDS011;42332;52.136;20.666;2024-02-26T01:39:16;25.35;;;10.00;;
56429;SDS011;42332;52.136;20.666;2024-02-26T01:41:41;27.52;;;9.18;;
56429;SDS011;42332;52.136;20.666;2024-02-26T01:44:07;26.20;;;9.32;;
56429;SDS011;42332;52.136;20.666;2024-02-26T01:46:33;23.63;;;9.25;;
56429;SDS011;42332;52.136;20.666;2024-02-26T01:48:59;24.75;;;9.80;;
56429;SDS011;42332;52.136;20.666;2024-02-26T01:51:26;20.15;;;9.13;;
56429;SDS011;42332;52.136;20.666;2024-02-26T01:53:51;24.58;;;10.00;;
56429;SDS011;42332;52.136;20.666;2024-02-26T01:56:17;18.70;;;8.85;;
56429;SDS011;42332;52.136;20.666;2024-02-26T01:58:43;27.85;;;9.60;;
56429;SDS011;42332;52.136;20.666;2024-02-26T02:01:08;20.13;;;9.40;;
56429;SDS011;42332;52.136;20.666;2024-02-26T02:03:34;29.10;;;9.13;;
56429;SDS011;42332;52.136;20.666;2024-02-26T02:06:00;23.10;;;8.05;;
56429;SDS011;42332;52.136;20.666;2024-02-26T02:08:26;18.80;;;8.48;;
56429;SDS011;42332;52.136;20.666;2024-02-26T02:10:52;22.17;;;7.95;;
56429;SDS011;42332;52.136;20.666;2024-02-26T02:13:18;23.02;;;9.60;;
56429;SDS011;42332;52.136;20.666;2024-02-26T02:15:43;20.27;;;9.02;;
56429;SDS011;42332;52.136;20.666;2024-02-26T02:18:08;19.52;;;9.05;;
56429;SDS011;42332;52.136;20.666;2024-02-26T02:20:34;23.60;;;9.68;;
56429;SDS011;42332;52.136;20.666;2024-02-26T02:22:59;19.45;;;8.68;;
56429;SDS011;42332;52.136;20.666;2024-02-26T02:25:25;29.52;;;10.00;;
56429;SDS011;42332;52.136;20.666;2024-02-26T02:27:50;26.08;;;9.07;;
56429;SDS011;42332;52.136;20.666;2024-02-26T02:30:17;27.08;;;9.80;;
56429;SDS011;42332;52.136;20.666;2024-02-26T02:32:42;23.20;;;8.82;;
56429;SDS011;42332;52.136;20.666;2024-02-26T02:35:08;22.38;;;9.45;;
56429;SDS011;42332;52.136;20.666;2024-02-26T02:37:33;19.63;;;8.20;;
56429;SDS011;42332;52.136;20.666;2024-02-26T02:39:59;24.27;;;9.00;;
56429;SDS011;42332;52.136;20.666;2024-02-26T02:42:25;20.63;;;8.40;;
56429;SDS011;42332;52.136;20.666;2024-02-26T02:44:50;22.08;;;9.13;;
56429;SDS011;42332;52.136;20.666;2024-02-26T02:47:16;21.67;;;8.52;;
56429;SDS011;42332;52.136;20.666;2024-02-26T02:49:41;24.50;;;8.55;;
56429;SDS011;42332;52.136;20.666;2024-02-26T02:52:06;21.90;;;8.82;;
56429;SDS011;42332;52.136;20.666;2024-02-26T02:54:32;22.08;;;8.52;;
56429;SDS011;42332;52.136;20.666;2024-02-26T02:56:57;22.92;;;8.52;;
56429;SDS011;42332;52.136;20.666;2024-02-26T02:59:23;23.92;;;9.70;;
56429;SDS011;42332;52.136;20.666;2024-02-26T03:01:48;22.13;;;8.75;;
56429;SDS011;42332;52.136;20.666;2024-02-26T03:04:14;23.58;;;8.82;;
56429;SDS011;42332;52.136;20.666;2024-02-26T03:06:39;20.60;;;8.30;;
56429;SDS011;42332;52.136;20.666;2024-02-26T03:09:05;23.23;;;8.50;;
56429;SDS011;42332;52.136;20.666;2024-02-26T03:11:30;28.58;;;8.88;;
56429;SDS011;42332;52.136;20.666;2024-02-26T03:13:55;24.73;;;8.05;;
56429;SDS011;42332;52.136;20.666;2024-02-26T03:16:21;17.05;;;8.00;;
56429;SDS011;42332;52.136;20.666;2024-02-26T03:18:46;28.02;;;9.98;;
56429;SDS011;42332;52.136;20.666;2024-02-26T03:21:12;21.00;;;9.18;;
56429;SDS011;42332;52.136;20.666;2024-02-26T03:23:37;22.05;;;7.97;;
56429;SDS011;42332;52.136;20.666;2024-02-26T03:26:03;16.38;;;7.72;;
56429;SDS011;42332;52.136;20.666;2024-02-26T03:28:29;24.77;;;9.32;;
56429;SDS011;42332;52.136;20.666;2024-02-26T03:30:54;20.35;;;8.25;;
56429;SDS011;42332;52.136;20.666;2024-02-26T03:33:19;20.85;;;8.65;;
56429;SDS011;42332;52.136;20.666;2024-02-26T03:35:45;20.73;;;8.73;;
56429;SDS011;42332;52.136;20.666;2024-02-26T03:38:10;21.75;;;9.43;;
56429;SDS011;42332;52.136;20.666;2024-02-26T03:40:35;26.27;;;8.93;;
56429;SDS011;42332;52.136;20.666;2024-02-26T03:43:01;22.42;;;7.95;;
56429;SDS011;42332;52.136;20.666;2024-02-26T03:45:27;20.08;;;8.68;;
56429;SDS011;42332;52.136;20.666;2024-02-26T03:47:53;18.50;;;7.85;;
56429;SDS011;42332;52.136;20.666;2024-02-26T03:50:18;20.52;;;8.38;;
56429;SDS011;42332;52.136;20.666;2024-02-26T03:52:43;26.73;;;9.30;;
56429;SDS011;42332;52.136;20.666;2024-02-26T03:55:09;25.98;;;9.30;;
56429;SDS011;42332;52.136;20.666;2024-02-26T03:57:35;31.92;;;11.35;;
56429;SDS011;42332;52.136;20.666;2024-02-26T04:00:01;52.72;;;18.20;;
56429;SDS011;42332;52.136;20.666;2024-02-26T04:02:26;59.03;;;20.13;;
56429;SDS011;42332;52.136;20.666;2024-02-26T04:04:52;58.75;;;18.30;;
56429;SDS011;42332;52.136;20.666;2024-02-26T04:07:17;50.92;;;17.08;;
56429;SDS011;42332;52.136;20.666;2024-02-26T04:09:42;50.30;;;17.45;;
56429;SDS011;42332;52.136;20.666;2024-02-26T04:12:08;36.47;;;13.70;;
56429;SDS011;42332;52.136;20.666;2024-02-26T04:14:34;51.83;;;15.45;;
56429;SDS011;42332;52.136;20.666;2024-02-26T04:17:00;33.20;;;11.15;;
56429;SDS011;42332;52.136;20.666;2024-02-26T04:19:26;27.58;;;11.43;;
56429;SDS011;42332;52.136;20.666;2024-02-26T04:21:51;25.60;;;11.63;;
56429;SDS011;42332;52.136;20.666;2024-02-26T04:24:16;30.42;;;12.27;;
56429;SDS011;42332;52.136;20.666;2024-02-26T04:26:42;29.55;;;11.77;;
56429;SDS011;42332;52.136;20.666;2024-02-26T04:29:07;27.90;;;11.38;;
56429;SDS011;42332;52.136;20.666;2024-02-26T04:31:32;34.92;;;12.18;;
56429;SDS011;42332;52.136;20.666;2024-02-26T04:33:58;27.45;;;10.15;;
56429;SDS011;42332;52.136;20.666;2024-02-26T04:36:23;23.23;;;9.50;;
56429;SDS011;42332;52.136;20.666;2024-02-26T04:38:50;35.47;;;10.48;;
56429;SDS011;42332;52.136;20.666;2024-02-26T04:41:16;23.52;;;8.70;;
56429;SDS011;42332;52.136;20.666;2024-02-26T04:43:41;22.95;;;8.82;;
56429;SDS011;42332;52.136;20.666;2024-02-26T04:46:07;22.48;;;9.25;;
56429;SDS011;42332;52.136;20.666;2024-02-26T04:48:33;28.52;;;7.85;;
56429;SDS011;42332;52.136;20.666;2024-02-26T04:50:59;25.23;;;9.40;;
56429;SDS011;42332;52.136;20.666;2024-02-26T04:53:25;27.27;;;9.68;;
56429;SDS011;42332;52.136;20.666;2024-02-26T04:55:50;25.02;;;8.82;;
56429;SDS011;42332;52.136;20.666;2024-02-26T04:58:16;25.90;;;9.43;;
56429;SDS011;42332;52.136;20.666;2024-02-26T05:00:42;24.10;;;8.90;;
56429;SDS011;42332;52.136;20.666;2024-02-26T05:03:07;18.45;;;8.85;;
56429;SDS011;42332;52.136;20.666;2024-02-26T05:05:37;28.77;;;9.85;;
56429;SDS011;42332;52.136;20.666;2024-02-26T05:08:03;25.73;;;11.10;;
56429;SDS011;42332;52.136;20.666;2024-02-26T05:10:28;24.08;;;11.00;;
56429;SDS011;42332;52.136;20.666;2024-02-26T05:12:54;25.35;;;9.95;;
56429;SDS011;42332;52.136;20.666;2024-02-26T05:15:19;32.78;;;11.73;;
56429;SDS011;42332;52.136;20.666;2024-02-26T05:17:44;25.40;;;10.98;;
56429;SDS011;42332;52.136;20.666;2024-02-26T05:20:10;28.35;;;11.32;;
56429;SDS011;42332;52.136;20.666;2024-02-26T05:22:36;30.38;;;11.15;;
56429;SDS011;42332;52.136;20.666;2024-02-26T05:25:02;28.35;;;11.00;;
56429;SDS011;42332;52.136;20.666;2024-02-26T05:27:28;27.50;;;12.30;;
56429;SDS011;42332;52.136;20.666;2024-02-26T05:29:53;33.67;;;12.45;;
56429;SDS011;42332;52.136;20.666;2024-02-26T05:32:19;28.95;;;11.00;;
56429;SDS011;42332;52.136;20.666;2024-02-26T05:34:44;25.88;;;10.10;;
56429;SDS011;42332;52.136;20.666;2024-02-26T05:37:10;33.92;;;11.80;;
56429;SDS011;42332;52.136;20.666;2024-02-26T05:39:35;27.88;;;13.18;;
56429;SDS011;42332;52.136;20.666;2024-02-26T05:42:00;31.92;;;11.63;;
56429;SDS011;42332;52.136;20.666;2024-02-26T05:44:26;29.40;;;12.15;;
56429;SDS011;42332;52.136;20.666;2024-02-26T05:46:52;28.90;;;11.20;;
56429;SDS011;42332;52.136;20.666;2024-02-26T05:49:17;25.98;;;10.88;;
56429;SDS011;42332;52.136;20.666;2024-02-26T05:51:42;25.55;;;10.45;;
56429;SDS011;42332;52.136;20.666;2024-02-26T05:54:08;27.70;;;11.95;;
56429;SDS011;42332;52.136;20.666;2024-02-26T05:56:35;23.45;;;10.38;;
56429;SDS011;42332;52.136;20.666;2024-02-26T05:59:00;26.10;;;10.48;;
56429;SDS011;42332;52.136;20.666;2024-02-26T06:01:25;30.45;;;11.52;;
56429;SDS011;42332;52.136;20.666;2024-02-26T06:03:51;27.83;;;10.85;;
56429;SDS011;42332;52.136;20.666;2024-02-26T06:06:16;21.88;;;9.98;;
56429;SDS011;42332;52.136;20.666;2024-02-26T06:08:42;30.00;;;11.43;;
56429;SDS011;42332;52.136;20.666;2024-02-26T06:11:08;30.95;;;11.15;;
56429;SDS011;42332;52.136;20.666;2024-02-26T06:13:34;31.70;;;11.93;;
56429;SDS011;42332;52.136;20.666;2024-02-26T06:16:00;33.60;;;11.80;;
56429;SDS011;42332;52.136;20.666;2024-02-26T06:18:25;28.40;;;10.75;;
56429;SDS011;42332;52.136;20.666;2024-02-26T06:20:51;30.27;;;11.68;;
56429;SDS011;42332;52.136;20.666;2024-02-26T06:23:16;31.55;;;11.30;;
56429;SDS011;42332;52.136;20.666;2024-02-26T06:25:41;31.80;;;10.40;;
56429;SDS011;42332;52.136;20.666;2024-02-26T06:28:07;29.40;;;13.02;;
56429;SDS011;42332;52.136;20.666;2024-02-26T06:30:33;32.00;;;12.07;;
56429;SDS011;42332;52.136;20.666;2024-02-26T06:32:59;32.72;;;13.10;;
56429;SDS011;42332;52.136;20.666;2024-02-26T06:35:24;36.35;;;14.20;;
56429;SDS011;42332;52.136;20.666;2024-02-26T06:37:49;37.40;;;14.50;;
56429;SDS011;42332;52.136;20.666;2024-02-26T06:40:17;31.13;;;13.60;;
56429;SDS011;42332;52.136;20.666;2024-02-26T06:42:43;33.10;;;15.07;;
56429;SDS011;42332;52.136;20.666;2024-02-26T06:45:09;28.88;;;12.95;;
56429;SDS011;42332;52.136;20.666;2024-02-26T06:47:34;29.02;;;11.82;;
56429;SDS011;42332;52.136;20.666;2024-02-26T06:49:59;26.73;;;12.10;;
56429;SDS011;42332;52.136;20.666;2024-02-26T06:52:25;35.25;;;12.05;;
56429;SDS011;42332;52.136;20.666;2024-02-26T06:54:51;31.75;;;12.65;;
56429;SDS011;42332;52.136;20.666;2024-02-26T06:57:19;33.13;;;12.82;;
56429;SDS011;42332;52.136;20.666;2024-02-26T06:59:45;26.08;;;12.00;;
56429;SDS011;42332;52.136;20.666;2024-02-26T07:02:12;30.77;;;12.82;;
56429;SDS011;42332;52.136;20.666;2024-02-26T07:04:41;30.67;;;12.90;;
56429;SDS011;42332;52.136;20.666;2024-02-26T07:07:07;31.20;;;12.88;;
56429;SDS011;42332;52.136;20.666;2024-02-26T07:09:32;28.25;;;11.88;;
56429;SDS011;42332;52.136;20.666;2024-02-26T07:11:58;29.65;;;12.30;;
56429;SDS011;42332;52.136;20.666;2024-02-26T07:14:23;35.05;;;13.70;;
56429;SDS011;42332;52.136;20.666;2024-02-26T07:16:49;33.63;;;13.27;;
56429;SDS011;42332;52.136;20.666;2024-02-26T07:19:15;32.90;;;13.43;;
56429;SDS011;42332;52.136;20.666;2024-02-26T07:21:40;29.02;;;13.38;;
56429;SDS011;42332;52.136;20.666;2024-02-26T07:24:05;38.38;;;15.25;;
56429;SDS011;42332;52.136;20.666;2024-02-26T07:26:31;29.52;;;12.02;;
56429;SDS011;42332;52.136;20.666;2024-02-26T07:28:56;29.65;;;11.98;;
56429;SDS011;42332;52.136;20.666;2024-02-26T07:31:22;29.40;;;12.10;;
56429;SDS011;42332;52.136;20.666;2024-02-26T07:33:47;33.97;;;12.70;;
56429;SDS011;42332;52.136;20.666;2024-02-26T07:36:13;26.67;;;10.70;;
56429;SDS011;42332;52.136;20.666;2024-02-26T07:38:38;33.85;;;10.52;;
56429;SDS011;42332;52.136;20.666;2024-02-26T07:41:04;25.52;;;10.93;;
56429;SDS011;42332;52.136;20.666;2024-02-26T07:43:30;27.38;;;10.32;;
56429;SDS011;42332;52.136;20.666;2024-02-26T07:45:55;30.10;;;11.60;;
56429;SDS011;42332;52.136;20.666;2024-02-26T07:48:20;37.88;;;12.02;;
56429;SDS011;42332;52.136;20.666;2024-02-26T07:50:46;29.60;;;12.88;;
56429;SDS011;42332;52.136;20.666;2024-02-26T07:53:11;28.30;;;12.10;;
56429;SDS011;42332;52.136;20.666;2024-02-26T07:55:36;27.17;;;11.52;;
56429;SDS011;42332;52.136;20.666;2024-02-26T07:58:02;23.73;;;10.95;;
56429;SDS011;42332;52.136;20.666;2024-02-26T08:00:27;35.58;;;12.10;;
56429;SDS011;42332;52.136;20.666;2024-02-26T08:02:53;25.75;;;11.73;;
56429;SDS011;42332;52.136;20.666;2024-02-26T08:05:18;25.83;;;11.90;;
56429;SDS011;42332;52.136;20.666;2024-02-26T08:07:44;22.95;;;9.80;;
56429;SDS011;42332;52.136;20.666;2024-02-26T08:10:09;27.60;;;10.45;;
56429;SDS011;42332;52.136;20.666;2024-02-26T08:12:36;23.60;;;10.10;;
56429;SDS011;42332;52.136;20.666;2024-02-26T08:15:01;26.40;;;10.18;;
56429;SDS011;42332;52.136;20.666;2024-02-26T08:17:26;24.55;;;9.10;;
56429;SDS011;42332;52.136;20.666;2024-02-26T08:19:52;23.60;;;10.32;;
56429;SDS011;42332;52.136;20.666;2024-02-26T08:22:18;27.52;;;10.90;;
56429;SDS011;42332;52.136;20.666;2024-02-26T08:24:43;26.17;;;9.30;;
56429;SDS011;42332;52.136;20.666;2024-02-26T08:27:09;21.83;;;9.07;;
56429;SDS011;42332;52.136;20.666;2024-02-26T08:29:34;17.00;;;8.50;;
56429;SDS011;42332;52.136;20.666;2024-02-26T08:32:00;18.65;;;8.70;;
56429;SDS011;42332;52.136;20.666;2024-02-26T08:34:25;18.98;;;7.97;;
56429;SDS011;42332;52.136;20.666;2024-02-26T08:36:51;17.85;;;7.65;;
56429;SDS011;42332;52.136;20.666;2024-02-26T08:39:16;18.27;;;7.43;;
56429;SDS011;42332;52.136;20.666;2024-02-26T08:41:42;20.13;;;8.80;;
56429;SDS011;42332;52.136;20.666;2024-02-26T08:44:08;19.25;;;8.23;;
56429;SDS011;42332;52.136;20.666;2024-02-26T08:46:34;19.13;;;7.43;;
56429;SDS011;42332;52.136;20.666;2024-02-26T08:48:59;17.83;;;7.53;;
56429;SDS011;42332;52.136;20.666;2024-02-26T08:51:25;16.85;;;7.25;;
56429;SDS011;42332;52.136;20.666;2024-02-26T08:53:50;24.95;;;9.50;;
56429;SDS011;42332;52.136;20.666;2024-02-26T08:56:16;21.45;;;8.93;;
56429;SDS011;42332;52.136;20.666;2024-02-26T08:58:42;18.85;;;8.50;;
56429;SDS011;42332;52.136;20.666;2024-02-26T09:01:08;16.50;;;7.55;;
56429;SDS011;42332;52.136;20.666;2024-02-26T09:03:34;19.65;;;8.10;;
56429;SDS011;42332;52.136;20.666;2024-02-26T09:05:59;16.58;;;8.07;;
56429;SDS011;42332;52.136;20.666;2024-02-26T09:08:25;19.45;;;7.90;;
56429;SDS011;42332;52.136;20.666;2024-02-26T09:10:50;15.77;;;7.28;;
56429;SDS011;42332;52.136;20.666;2024-02-26T09:13:15;16.88;;;7.45;;
56429;SDS011;42332;52.136;20.666;2024-02-26T09:15:41;13.57;;;6.63;;
56429;SDS011;42332;52.136;20.666;2024-02-26T09:18:06;17.65;;;8.65;;
56429;SDS011;42332;52.136;20.666;2024-02-26T09:20:31;17.77;;;7.60;;
56429;SDS011;42332;52.136;20.666;2024-02-26T09:22:57;17.83;;;8.10;;
56429;SDS011;42332;52.136;20.666;2024-02-26T09:25:22;20.05;;;7.80;;
56429;SDS011;42332;52.136;20.666;2024-02-26T09:27:48;18.00;;;8.30;;
56429;SDS011;42332;52.136;20.666;2024-02-26T09:30:13;16.95;;;8.30;;
56429;SDS011;42332;52.136;20.666;2024-02-26T09:32:39;15.90;;;7.90;;
56429;SDS011;42332;52.136;20.666;2024-02-26T09:35:07;15.73;;;7.65;;
56429;SDS011;42332;52.136;20.666;2024-02-26T09:37:33;14.52;;;7.72;;
56429;SDS011;42332;52.136;20.666;2024-02-26T09:39:58;17.98;;;8.30;;
56429;SDS011;42332;52.136;20.666;2024-02-26T09:42:25;16.63;;;7.70;;
56429;SDS011;42332;52.136;20.666;2024-02-26T09:44:51;23.58;;;9.38;;
56429;SDS011;42332;52.136;20.666;2024-02-26T09:47:19;19.55;;;10.05;;
56429;SDS011;42332;52.136;20.666;2024-02-26T09:49:46;17.67;;;10.15;;
56429;SDS011;42332;52.136;20.666;2024-02-26T09:52:12;14.77;;;7.38;;
56429;SDS011;42332;52.136;20.666;2024-02-26T09:54:40;19.45;;;9.45;;
56429;SDS011;42332;52.136;20.666;2024-02-26T09:57:05;14.20;;;7.25;;
56429;SDS011;42332;52.136;20.666;2024-02-26T09:59:39;13.27;;;6.43;;
56429;SDS011;42332;52.136;20.666;2024-02-26T10:02:06;12.75;;;6.50;;
56429;SDS011;42332;52.136;20.666;2024-02-26T10:04:34;14.57;;;7.80;;
56429;SDS011;42332;52.136;20.666;2024-02-26T10:07:00;13.73;;;6.80;;
56429;SDS011;42332;52.136;20.666;2024-02-26T10:09:27;13.60;;;6.45;;
56429;SDS011;42332;52.136;20.666;2024-02-26T10:11:53;19.23;;;7.32;;
56429;SDS011;42332;52.136;20.666;2024-02-26T10:14:18;15.02;;;6.95;;
56429;SDS011;42332;52.136;20.666;2024-02-26T10:16:43;19.95;;;7.97;;
56429;SDS011;42332;52.136;20.666;2024-02-26T10:19:09;16.48;;;7.60;;
56429;SDS011;42332;52.136;20.666;2024-02-26T10:21:52;17.40;;;7.20;;
56429;SDS011;42332;52.136;20.666;2024-02-26T10:24:21;17.33;;;8.25;;
56429;SDS011;42332;52.136;20.666;2024-02-26T10:26:46;18.77;;;8.80;;
56429;SDS011;42332;52.136;20.666;2024-02-26T10:29:12;21.30;;;8.75;;
56429;SDS011;42332;52.136;20.666;2024-02-26T10:31:37;19.40;;;9.55;;
56429;SDS011;42332;52.136;20.666;2024-02-26T10:34:02;15.13;;;7.65;;
56429;SDS011;42332;52.136;20.666;2024-02-26T10:36:28;16.77;;;7.95;;
56429;SDS011;42332;52.136;20.666;2024-02-26T10:38:54;16.45;;;8.45;;
56429;SDS011;42332;52.136;20.666;2024-02-26T10:41:19;15.50;;;8.30;;
56429;SDS011;42332;52.136;20.666;2024-02-26T10:43:46;18.20;;;9.13;;
56429;SDS011;42332;52.136;20.666;2024-02-26T10:46:12;20.25;;;8.90;;
56429;SDS011;42332;52.136;20.666;2024-02-26T10:48:37;17.38;;;9.02;;
56429;SDS011;42332;52.136;20.666;2024-02-26T10:51:03;18.88;;;9.35;;
56429;SDS011;42332;52.136;20.666;2024-02-26T10:53:29;15.02;;;8.80;;
56429;SDS011;42332;52.136;20.666;2024-02-26T10:55:57;16.88;;;8.95;;
56429;SDS011;42332;52.136;20.666;2024-02-26T10:58:26;16.65;;;8.35;;
56429;SDS011;42332;52.136;20.666;2024-02-26T11:00:53;16.70;;;8.23;;
56429;SDS011;42332;52.136;20.666;2024-02-26T11:03:19;18.73;;;9.40;;
56429;SDS011;42332;52.136;20.666;2024-02-26T11:05:50;14.93;;;8.00;;
56429;SDS011;42332;52.136;20.666;2024-02-26T11:08:18;15.13;;;7.90;;
56429;SDS011;42332;52.136;20.666;2024-02-26T11:10:44;14.55;;;7.78;;
56429;SDS011;42332;52.136;20.666;2024-02-26T11:13:14;17.05;;;8.45;;
56429;SDS011;42332;52.136;20.666;2024-02-26T11:15:40;15.30;;;7.65;;
56429;SDS011;42332;52.136;20.666;2024-02-26T11:18:06;18.95;;;8.20;;
56429;SDS011;42332;52.136;20.666;2024-02-26T11:20:32;16.70;;;7.70;;
56429;SDS011;42332;52.136;20.666;2024-02-26T11:22:58;12.95;;;7.65;;
56429;SDS011;42332;52.136;20.666;2024-02-26T11:25:24;15.32;;;8.10;;
56429;SDS011;42332;52.136;20.666;2024-02-26T11:27:51;12.93;;;7.40;;
56429;SDS011;42332;52.136;20.666;2024-02-26T11:30:19;15.65;;;7.60;;
56429;SDS011;42332;52.136;20.666;2024-02-26T11:32:45;14.30;;;7.20;;
56429;SDS011;42332;52.136;20.666;2024-02-26T11:35:11;15.20;;;8.25;;
56429;SDS011;42332;52.136;20.666;2024-02-26T11:37:40;26.30;;;8.57;;
56429;SDS011;42332;52.136;20.666;2024-02-26T11:40:08;14.77;;;7.53;;
56429;SDS011;42332;52.136;20.666;2024-02-26T11:42:35;17.40;;;7.85;;
56429;SDS011;42332;52.136;20.666;2024-02-26T11:45:37;18.35;;;8.68;;
56429;SDS011;42332;52.136;20.666;2024-02-26T11:48:03;15.25;;;7.18;;
56429;SDS011;42332;52.136;20.666;2024-02-26T11:50:35;16.40;;;8.07;;
56429;SDS011;42332;52.136;20.666;2024-02-26T11:58:44;14.63;;;7.80;;
56429;SDS011;42332;52.136;20.666;2024-02-26T12:06:52;15.38;;;8.70;;
56429;SDS011;42332;52.136;20.666;2024-02-26T12:12:08;17.80;;;8.35;;
56429;SDS011;42332;52.136;20.666;2024-02-26T12:14:36;14.25;;;7.10;;
56429;SDS011;42332;52.136;20.666;2024-02-26T12:17:03;15.88;;;8.05;;
56429;SDS011;42332;52.136;20.666;2024-02-26T12:19:32;17.98;;;8.25;;
56429;SDS011;42332;52.136;20.666;2024-02-26T12:21:57;13.85;;;7.45;;
56429;SDS011;42332;52.136;20.666;2024-02-26T12:24:23;14.32;;;6.60;;
56429;SDS011;42332;52.136;20.666;2024-02-26T12:26:48;11.73;;;5.95;;
56429;SDS011;42332;52.136;20.666;2024-02-26T12:29:14;13.05;;;5.88;;
56429;SDS011;42332;52.136;20.666;2024-02-26T12:31:39;10.10;;;5.63;;
56429;SDS011;42332;52.136;20.666;2024-02-26T12:34:06;9.93;;;5.55;;
56429;SDS011;42332;52.136;20.666;2024-02-26T12:36:33;10.82;;;5.35;;
56429;SDS011;42332;52.136;20.666;2024-02-26T12:38:59;11.15;;;5.40;;
56429;SDS011;42332;52.136;20.666;2024-02-26T12:41:25;11.00;;;5.25;;
56429;SDS011;42332;52.136;20.666;2024-02-26T12:43:52;13.73;;;5.95;;
56429;SDS011;42332;52.136;20.666;2024-02-26T12:46:18;9.85;;;5.10;;
56429;SDS011;42332;52.136;20.666;2024-02-26T12:48:43;10.30;;;5.50;;
56429;SDS011;42332;52.136;20.666;2024-02-26T12:51:11;13.55;;;5.60;;
56429;SDS011;42332;52.136;20.666;2024-02-26T12:53:37;10.32;;;5.38;;
56429;SDS011;42332;52.136;20.666;2024-02-26T12:56:03;13.65;;;5.55;;
56429;SDS011;42332;52.136;20.666;2024-02-26T12:58:29;11.75;;;5.72;;
56429;SDS011;42332;52.136;20.666;2024-02-26T13:00:56;12.07;;;5.30;;
56429;SDS011;42332;52.136;20.666;2024-02-26T13:03:22;8.77;;;4.65;;
56429;SDS011;42332;52.136;20.666;2024-02-26T13:05:48;10.65;;;4.90;;
56429;SDS011;42332;52.136;20.666;2024-02-26T13:08:20;9.48;;;4.68;;
56429;SDS011;42332;52.136;20.666;2024-02-26T13:10:46;9.05;;;4.80;;
56429;SDS011;42332;52.136;20.666;2024-02-26T13:13:12;8.85;;;4.10;;
56429;SDS011;42332;52.136;20.666;2024-02-26T13:15:40;10.20;;;4.68;;
56429;SDS011;42332;52.136;20.666;2024-02-26T13:18:11;13.95;;;4.50;;
56429;SDS011;42332;52.136;20.666;2024-02-26T13:20:40;8.75;;;4.43;;
56429;SDS011;42332;52.136;20.666;2024-02-26T13:23:07;9.65;;;5.22;;
56429;SDS011;42332;52.136;20.666;2024-02-26T13:25:34;7.72;;;4.10;;
56429;SDS011;42332;52.136;20.666;2024-02-26T13:28:12;8.32;;;4.22;;
56429;SDS011;42332;52.136;20.666;2024-02-26T13:30:41;8.85;;;4.13;;
56429;SDS011;42332;52.136;20.666;2024-02-26T13:33:07;8.20;;;4.07;;
56429;SDS011;42332;52.136;20.666;2024-02-26T13:35:36;11.50;;;4.13;;
56429;SDS011;42332;52.136;20.666;2024-02-26T13:38:03;7.93;;;4.00;;
56429;SDS011;42332;52.136;20.666;2024-02-26T13:40:29;7.70;;;3.85;;
56429;SDS011;42332;52.136;20.666;2024-02-26T13:42:55;8.95;;;3.88;;
56429;SDS011;42332;52.136;20.666;2024-02-26T13:45:20;7.28;;;3.58;;
56429;SDS011;42332;52.136;20.666;2024-02-26T13:47:45;9.38;;;3.72;;
56429;SDS011;42332;52.136;20.666;2024-02-26T13:50:11;7.05;;;3.45;;
56429;SDS011;42332;52.136;20.666;2024-02-26T13:52:36;8.27;;;3.58;;
56429;SDS011;42332;52.136;20.666;2024-02-26T13:55:02;8.75;;;3.45;;
56429;SDS011;42332;52.136;20.666;2024-02-26T13:57:28;7.53;;;3.60;;
56429;SDS011;42332;52.136;20.666;2024-02-26T13:59:53;7.38;;;3.55;;
56429;SDS011;42332;52.136;20.666;2024-02-26T14:02:19;7.22;;;3.67;;
56429;SDS011;42332;52.136;20.666;2024-02-26T14:04:45;6.95;;;3.30;;
56429;SDS011;42332;52.136;20.666;2024-02-26T14:07:11;8.20;;;3.90;;
56429;SDS011;42332;52.136;20.666;2024-02-26T14:09:37;12.52;;;3.60;;
56429;SDS011;42332;52.136;20.666;2024-02-26T14:12:02;6.95;;;3.58;;
56429;SDS011;42332;52.136;20.666;2024-02-26T14:14:28;8.52;;;3.10;;
56429;SDS011;42332;52.136;20.666;2024-02-26T14:16:53;8.18;;;3.47;;
56429;SDS011;42332;52.136;20.666;2024-02-26T14:19:19;7.50;;;3.35;;
56429;SDS011;42332;52.136;20.666;2024-02-26T14:21:44;6.68;;;3.35;;
56429;SDS011;42332;52.136;20.666;2024-02-26T14:24:09;7.38;;;2.88;;
56429;SDS011;42332;52.136;20.666;2024-02-26T14:26:35;6.63;;;2.97;;